Time;durP1;ratioP1;P1;durP2;ratioP2;P2;SDS_P1;SDS_P2;PMS_P1;PMS_P2;Temp;Humidity;BMP_temperature;BMP_pressure;BME280_temperature;BME280_humidity;BME280_pressure;Samples;Min_cycle;Max_cycle;Signal;HPM_P1;HPM_P2
2024/03/05 00:00:13;;;;;;;;;;;;;;;6.21;100.00;96404.00;30001;982;1877;-54
2024/03/05 00:00:46;;;;;;;;;;;;;;;6.20;100.00;96403.22;30001;983;1880;-55
2024/03/05 00:01:16;;;;;;;;;;;;;;;6.20;100.00;96399.72;30001;983;1885;-55
2024/03/05 00:01:47;;;;;;;;;;;;;;;6.19;100.00;96400.78;30001;983;1880;-54
2024/03/05 00:02:19;;;;;;;;;;;;;;;6.21;100.00;96399.44;30001;983;1885;-54
2024/03/05 00:02:50;;;;;;;;;;;;;;;6.23;100.00;96401.84;30001;983;1880;-54
2024/03/05 00:03:21;;;;;;;;;;;;;;;6.25;100.00;96405.84;30001;983;1885;-54
2024/03/05 00:03:52;;;;;;;;;;;;;;;6.25;100.00;96405.03;30001;983;1881;-54
2024/03/05 00:04:23;;;;;;;;;;;;;;;6.22;100.00;96411.00;30001;983;1885;-53
2024/03/05 00:04:55;;;;;;;;;;;;;;;6.20;100.00;96407.78;30001;983;1868;-54
2024/03/05 00:05:26;;;;;;;;;;;;;;;6.20;100.00;96402.41;30001;982;1853;-54
2024/03/05 00:06:00;;;;;;;;;;;;;;;6.18;100.00;96399.97;30001;982;1868;-54
2024/03/05 00:06:32;;;;;;;;;;;;;;;6.18;100.00;96397.28;30001;982;1877;-54
2024/03/05 00:07:03;;;;;;;;;;;;;;;6.25;100.00;96405.03;30001;982;1881;-54
2024/03/05 00:07:35;;;;;;;;;;;;;;;6.24;100.00;96404.25;30001;982;1885;-55
2024/03/05 00:08:06;;;;;;;;;;;;;;;6.29;100.00;96412.31;30001;983;1880;-56
2024/03/05 00:08:37;;;;;;;;;;;;;;;6.27;100.00;96403.69;30001;983;1884;-54
2024/03/05 00:09:08;;;;;;;;;;;;;;;6.24;100.00;96400.75;30001;983;1880;-54
2024/03/05 00:09:39;;;;;;;;;;;;;;;6.22;100.00;96400.25;30001;983;1885;-54
2024/03/05 00:10:10;;;;;;;;;;;;;;;6.17;100.00;96403.75;30001;983;1880;-54
2024/03/05 00:10:42;;;;;;;;;;;;;;;6.15;100.00;96400.53;30001;983;1885;-54
2024/03/05 00:11:13;;;;;;;;;;;;;;;6.15;100.00;96407.81;30001;983;1824;-53
2024/03/05 00:11:45;;;;;;;;;;;;;;;6.12;100.00;96405.66;30001;983;1876;-53
2024/03/05 00:12:17;;;;;;;;;;;;;;;6.10;100.00;96405.13;30001;983;1881;-55
2024/03/05 00:12:48;;;;;;;;;;;;;;;6.10;100.00;96402.44;30001;983;1885;-54
2024/03/05 00:13:19;;;;;;;;;;;;;;;6.09;100.00;96403.53;30001;982;1850;-54
2024/03/05 00:13:52;;;;;;;;;;;;;;;6.08;100.00;96405.41;30001;982;1885;-54
2024/03/05 00:14:23;;;;;;;;;;;;;;;6.09;100.00;96407.03;30001;982;1881;-55
2024/03/05 00:14:55;;;;;;;;;;;;;;;6.11;100.00;96398.66;30001;982;1885;-54
2024/03/05 00:15:26;;;;;;;;;;;;;;;6.10;100.00;96397.06;30001;983;1880;-54
2024/03/05 00:15:57;;;;;;;;;;;;;;;6.09;100.00;96398.94;30001;983;1884;-54
2024/03/05 00:16:28;;;;;;;;;;;;;;;6.10;100.00;96408.63;30001;983;1867;-56
2024/03/05 00:16:59;;;;;;;;;;;;;;;6.09;100.00;96403.53;30001;983;1876;-56
2024/03/05 00:17:30;;;;;;;;;;;;;;;6.10;100.00;96405.13;30001;983;1880;-54
2024/03/05 00:18:04;;;;;;;;;;;;;;;6.08;100.00;96408.09;30001;983;1885;-54
2024/03/05 00:18:35;;;;;;;;;;;;;;;6.08;100.00;96404.59;30001;983;1881;-54
2024/03/05 00:19:08;;;;;;;;;;;;;;;6.07;100.00;96408.38;30001;983;1885;-54
2024/03/05 00:19:39;;;;;;;;;;;;;;;6.08;100.00;96410.00;30001;983;1881;-55
2024/03/05 00:20:18;;;;;;;;;;;;;;;6.07;100.00;96408.38;30001;983;1885;-53
2024/03/05 00:20:49;;;;;;;;;;;;;;;6.07;100.00;96413.75;30001;982;1881;-54
2024/03/05 00:21:23;;;;;;;;;;;;;;;6.05;100.00;96420.22;30001;982;1885;-54
2024/03/05 00:21:54;;;;;;;;;;;;;;;6.04;100.00;96421.31;30001;982;1868;-54
2024/03/05 00:22:26;;;;;;;;;;;;;;;6.03;100.00;96410.81;30001;982;1877;-54
2024/03/05 00:22:58;;;;;;;;;;;;;;;6.03;100.00;96413.50;30001;982;1881;-54
2024/03/05 00:23:30;;;;;;;;;;;;;;;6.00;100.00;96414.84;30001;983;1884;-54
2024/03/05 00:24:01;;;;;;;;;;;;;;;6.01;100.00;96415.66;30001;983;1880;-54
2024/03/05 00:24:32;;;;;;;;;;;;;;;5.99;100.00;96415.94;30001;983;1885;-54
2024/03/05 00:25:04;;;;;;;;;;;;;;;5.97;100.00;96415.41;30001;983;1880;-54
2024/03/05 00:25:38;;;;;;;;;;;;;;;5.96;100.00;96413.78;30001;983;1885;-53
2024/03/05 00:26:13;;;;;;;;;;;;;;;5.96;100.00;96418.37;30001;983;1881;-54
2024/03/05 00:26:44;;;;;;;;;;;;;;;5.95;100.00;96417.56;30001;983;1885;-54
2024/03/05 00:27:16;;;;;;;;;;;;;;;5.95;100.00;96416.75;30001;982;1868;-54
2024/03/05 00:27:48;;;;;;;;;;;;;;;5.94;100.00;96415.94;30001;982;1876;-53
2024/03/05 00:28:19;;;;;;;;;;;;;;;5.94;100.00;96415.94;30001;982;1881;-54
2024/03/05 00:28:50;;;;;;;;;;;;;;;5.92;100.00;96418.13;30001;982;1885;-53
2024/03/05 00:29:21;;;;;;;;;;;;;;;5.92;100.00;96417.31;30001;982;1881;-54
2024/03/05 00:29:52;;;;;;;;;;;;;;;5.91;100.00;96416.50;30001;982;1885;-54
2024/03/05 00:30:22;;;;;;;;;;;;;;;5.91;100.00;96416.50;30001;982;1881;-54
2024/03/05 00:30:53;;;;;;;;;;;;;;;5.90;100.00;96409.50;30001;983;1885;-69
2024/03/05 00:31:24;;;;;;;;;;;;;;;5.90;100.00;96414.88;30001;983;1880;-53
2024/03/05 00:31:55;;;;;;;;;;;;;;;5.90;100.00;96420.28;30001;983;1872;-54
2024/03/05 00:32:26;;;;;;;;;;;;;;;5.89;100.00;96413.28;30001;983;1872;-54
2024/03/05 00:32:57;;;;;;;;;;;;;;;5.90;100.00;96414.88;30001;983;1885;-54
2024/03/05 00:33:28;;;;;;;;;;;;;;;5.90;100.00;96412.19;30001;983;1881;-55
2024/03/05 00:33:59;;;;;;;;;;;;;;;5.90;100.00;96411.37;30001;983;1885;-54
2024/03/05 00:34:36;;;;;;;;;;;;;;;5.90;100.00;96414.88;30001;983;1881;-54
2024/03/05 00:35:07;;;;;;;;;;;;;;;5.90;100.00;96409.50;30001;982;1885;-54
2024/03/05 00:35:38;;;;;;;;;;;;;;;5.91;100.00;96416.50;30001;982;1881;-54
2024/03/05 00:36:09;;;;;;;;;;;;;;;5.91;100.00;96410.31;30001;982;1885;-55
2024/03/05 00:36:40;;;;;;;;;;;;;;;5.92;100.00;96420.81;30001;973;1862;-54
2024/03/05 00:37:11;;;;;;;;;;;;;;;5.92;100.00;96417.31;30001;982;1872;-54
2024/03/05 00:37:42;;;;;;;;;;;;;;;5.93;100.00;96413.53;30001;982;1872;-54
2024/03/05 00:38:13;;;;;;;;;;;;;;;5.92;100.00;96415.41;30001;983;1885;-54
2024/03/05 00:38:44;;;;;;;;;;;;;;;5.92;100.00;96410.03;30001;983;1880;-54
2024/03/05 00:39:15;;;;;;;;;;;;;;;5.93;100.00;96417.03;30001;983;1885;-54
2024/03/05 00:39:46;;;;;;;;;;;;;;;5.93;100.00;96417.03;30001;983;1880;-56
2024/03/05 00:40:17;;;;;;;;;;;;;;;5.93;100.00;96419.72;30001;983;1885;-54
2024/03/05 00:40:48;;;;;;;;;;;;;;;5.94;100.00;96415.16;30001;983;1881;-53
2024/03/05 00:41:19;;;;;;;;;;;;;;;5.93;100.00;96419.72;30001;983;1885;-53
2024/03/05 00:41:50;;;;;;;;;;;;;;;5.92;100.00;96412.72;30001;983;1881;-54
2024/03/05 00:42:21;;;;;;;;;;;;;;;5.93;100.00;96417.03;30001;982;1872;-54
2024/03/05 00:42:52;;;;;;;;;;;;;;;5.93;100.00;96414.34;30001;982;1872;-54
2024/03/05 00:43:23;;;;;;;;;;;;;;;5.93;100.00;96414.34;30001;982;1885;-54
2024/03/05 00:43:54;;;;;;;;;;;;;;;5.92;100.00;96412.72;30001;982;1881;-54
2024/03/05 00:44:26;;;;;;;;;;;;;;;5.93;100.00;96417.03;30001;982;1885;-53
2024/03/05 00:44:58;;;;;;;;;;;;;;;5.93;100.00;96416.22;30001;982;1881;-54
2024/03/05 00:45:30;;;;;;;;;;;;;;;5.92;100.00;96418.13;30001;982;1885;-54
2024/03/05 00:46:02;;;;;;;;;;;;;;;5.92;100.00;96410.03;30001;983;1880;-54
2024/03/05 00:46:32;;;;;;;;;;;;;;;5.92;100.00;96411.91;30001;983;1885;-54
2024/03/05 00:47:03;;;;;;;;;;;;;;;5.92;100.00;96411.91;30001;983;1880;-54
2024/03/05 00:47:35;;;;;;;;;;;;;;;5.92;100.00;96415.41;30001;983;1872;-54
2024/03/05 00:48:06;;;;;;;;;;;;;;;5.91;100.00;96419.19;30001;983;1872;-54
2024/03/05 00:48:37;;;;;;;;;;;;;;;5.92;100.00;96417.31;30001;983;1885;-54
2024/03/05 00:49:08;;;;;;;;;;;;;;;5.92;100.00;96415.41;30001;983;1881;-54
2024/03/05 00:49:39;;;;;;;;;;;;;;;5.92;100.00;96412.72;30001;983;1885;-54
2024/03/05 00:50:13;;;;;;;;;;;;;;;5.93;100.00;96418.91;30001;982;1788;-54
2024/03/05 00:50:45;;;;;;;;;;;;;;;5.93;100.00;96416.22;30001;982;1885;-54
2024/03/05 00:51:17;;;;;;;;;;;;;;;5.94;100.00;96418.66;30001;982;1881;-55
2024/03/05 00:51:49;;;;;;;;;;;;;;;5.93;100.00;96414.34;30001;982;1885;-54
2024/03/05 00:52:20;;;;;;;;;;;;;;;5.93;100.00;96419.72;30001;982;1881;-55
2024/03/05 00:52:51;;;;;;;;;;;;;;;5.93;100.00;96421.59;30001;982;1872;-54
2024/03/05 00:53:22;;;;;;;;;;;;;;;5.92;100.00;96423.50;30001;983;1871;-69
2024/03/05 00:53:54;;;;;;;;;;;;;;;5.92;100.00;96412.72;30001;983;1885;-54
2024/03/05 00:54:24;;;;;;;;;;;;;;;5.93;100.00;96419.72;30001;983;1880;-54
2024/03/05 00:54:56;;;;;;;;;;;;;;;5.92;100.00;96418.13;30001;983;1872;-55
2024/03/05 00:55:28;;;;;;;;;;;;;;;5.94;100.00;96420.53;30001;983;1872;-53
2024/03/05 00:55:59;;;;;;;;;;;;;;;5.93;100.00;96419.72;30001;983;1885;-55
2024/03/05 00:56:30;;;;;;;;;;;;;;;5.94;100.00;96425.91;30001;983;1881;-53
2024/03/05 00:57:01;;;;;;;;;;;;;;;5.92;100.00;96428.88;30001;983;1885;-54
2024/03/05 00:57:32;;;;;;;;;;;;;;;5.93;100.00;96422.41;30001;982;1784;-67
2024/03/05 00:58:07;;;;;;;;;;;;;;;5.94;100.00;96421.34;30001;982;1885;-54
2024/03/05 00:58:38;;;;;;;;;;;;;;;5.94;100.00;96426.72;30001;982;1881;-54
2024/03/05 00:59:09;;;;;;;;;;;;;;;5.94;100.00;96421.34;30001;961;1906;-54
2024/03/05 00:59:40;;;;;;;;;;;;;;;5.95;100.00;96427.53;30001;982;1881;-54
2024/03/05 01:00:13;;;;;;;;;;;;;;;5.94;100.00;96421.34;30001;983;1871;-54
2024/03/05 01:00:44;;;;;;;;;;;;;;;5.96;100.00;96427.25;30001;983;1871;-54
2024/03/05 01:01:15;;;;;;;;;;;;;;;5.95;100.00;96420.25;30001;983;1885;-54
2024/03/05 01:01:46;;;;;;;;;;;;;;;5.96;100.00;96423.75;30001;983;1880;-54
2024/03/05 01:02:18;;;;;;;;;;;;;;;5.94;100.00;96426.72;30001;983;1885;-53
2024/03/05 01:02:50;;;;;;;;;;;;;;;5.96;100.00;96424.56;30001;983;1880;-54
2024/03/05 01:03:21;;;;;;;;;;;;;;;5.95;100.00;96417.56;30001;983;1885;-54
2024/03/05 01:03:52;;;;;;;;;;;;;;;5.96;100.00;96424.56;30001;983;1881;-54
2024/03/05 01:04:25;;;;;;;;;;;;;;;5.95;100.00;96428.34;30001;983;1885;-54
2024/03/05 01:04:56;;;;;;;;;;;;;;;5.95;100.00;96428.34;30001;982;1881;-54
2024/03/05 01:05:28;;;;;;;;;;;;;;;5.95;100.00;96427.53;30001;986;1872;-54
2024/03/05 01:05:59;;;;;;;;;;;;;;;5.93;100.00;96425.09;30001;982;1872;-54
2024/03/05 01:06:29;;;;;;;;;;;;;;;5.93;100.00;96418.91;30001;982;1885;-54
2024/03/05 01:07:01;;;;;;;;;;;;;;;5.93;100.00;96419.72;30001;982;1881;-54
2024/03/05 01:07:31;;;;;;;;;;;;;;;5.93;100.00;96425.09;30001;983;1884;-54
2024/03/05 01:08:03;;;;;;;;;;;;;;;5.94;100.00;96420.53;30001;983;1880;-54
2024/03/05 01:08:34;;;;;;;;;;;;;;;5.93;100.00;96427.00;30001;983;1885;-55
2024/03/05 01:09:11;;;;;;;;;;;;;;;5.94;100.00;96423.22;30001;983;1880;-54
2024/03/05 01:09:42;;;;;;;;;;;;;;;5.95;100.00;96431.03;30001;983;1885;-54
2024/03/05 01:10:13;;;;;;;;;;;;;;;5.95;100.00;96425.63;30001;983;1880;-53
2024/03/05 01:10:45;;;;;;;;;;;;;;;5.94;100.00;96421.34;30001;983;1872;-54
2024/03/05 01:11:16;;;;;;;;;;;;;;;5.96;100.00;96421.06;30001;983;1872;-54
2024/03/05 01:11:47;;;;;;;;;;;;;;;5.96;100.00;96421.88;30001;983;1885;-54
2024/03/05 01:12:18;;;;;;;;;;;;;;;5.97;100.00;96426.19;30001;983;1881;-54
2024/03/05 01:12:49;;;;;;;;;;;;;;;5.96;100.00;96424.56;30001;982;1885;-54
2024/03/05 01:13:20;;;;;;;;;;;;;;;5.96;100.00;96424.56;30001;982;1881;-54
2024/03/05 01:13:52;;;;;;;;;;;;;;;5.96;100.00;96419.19;30001;982;1885;-54
2024/03/05 01:14:24;;;;;;;;;;;;;;;5.97;100.00;96425.38;30001;982;1881;-54
2024/03/05 01:14:55;;;;;;;;;;;;;;;5.96;100.00;96421.88;30001;982;1885;-55
2024/03/05 01:15:26;;;;;;;;;;;;;;;5.96;100.00;96419.19;30001;983;1880;-54
2024/03/05 01:15:57;;;;;;;;;;;;;;;5.96;100.00;96427.25;30001;983;1871;-54
2024/03/05 01:16:28;;;;;;;;;;;;;;;5.96;100.00;96418.37;30001;983;1871;-54
2024/03/05 01:16:59;;;;;;;;;;;;;;;5.95;100.00;96422.94;30001;983;1885;-54
2024/03/05 01:17:30;;;;;;;;;;;;;;;5.94;100.00;96421.34;30001;983;1880;-54
2024/03/05 01:18:01;;;;;;;;;;;;;;;5.94;100.00;96420.53;30001;983;1885;-54
2024/03/05 01:18:32;;;;;;;;;;;;;;;5.94;100.00;96415.94;30001;983;1881;-54
2024/03/05 01:19:03;;;;;;;;;;;;;;;5.94;100.00;96418.66;30001;983;1885;-54
2024/03/05 01:19:37;;;;;;;;;;;;;;;5.95;100.00;96428.34;30001;983;1881;-54
2024/03/05 01:20:15;;;;;;;;;;;;;;;5.93;100.00;96422.41;30001;982;1885;-71
2024/03/05 01:20:46;;;;;;;;;;;;;;;5.92;100.00;96422.69;30001;982;1881;-56
2024/03/05 01:21:17;;;;;;;;;;;;;;;5.92;100.00;96426.19;30001;982;1872;-54
2024/03/05 01:21:48;;;;;;;;;;;;;;;5.91;100.00;96419.19;30001;982;1872;-54
2024/03/05 01:22:21;;;;;;;;;;;;;;;5.91;100.00;96421.88;30001;982;1885;-54
2024/03/05 01:22:52;;;;;;;;;;;;;;;5.91;100.00;96421.88;30001;983;1880;-54
2024/03/05 01:23:24;;;;;;;;;;;;;;;5.91;100.00;96424.56;30001;983;1885;-54
2024/03/05 01:23:55;;;;;;;;;;;;;;;5.91;100.00;96421.88;30001;983;1880;-54
2024/03/05 01:24:26;;;;;;;;;;;;;;;5.92;100.00;96423.50;30001;983;1885;-53
2024/03/05 01:24:57;;;;;;;;;;;;;;;5.92;100.00;96422.69;30001;983;1880;-54
2024/03/05 01:25:27;;;;;;;;;;;;;;;5.91;100.00;96421.88;30001;983;1885;-53
2024/03/05 01:25:59;;;;;;;;;;;;;;;5.92;100.00;96428.06;30001;983;1881;-54
2024/03/05 01:26:30;;;;;;;;;;;;;;;5.91;100.00;96421.06;30001;983;1872;-54
2024/03/05 01:27:03;;;;;;;;;;;;;;;5.90;100.00;96425.66;30001;983;1765;-54
2024/03/05 01:27:34;;;;;;;;;;;;;;;5.90;100.00;96422.97;30001;982;1872;-54
2024/03/05 01:28:05;;;;;;;;;;;;;;;5.91;100.00;96426.47;30001;982;1872;-54
2024/03/05 01:28:36;;;;;;;;;;;;;;;5.90;100.00;96424.84;30001;982;1885;-53
2024/03/05 01:29:07;;;;;;;;;;;;;;;5.90;100.00;96424.84;30001;982;1881;-54
2024/03/05 01:29:41;;;;;;;;;;;;;;;5.89;100.00;96421.34;30001;982;1885;-53
2024/03/05 01:30:13;;;;;;;;;;;;;;;5.89;100.00;96417.88;30001;983;1880;-53
2024/03/05 01:30:44;;;;;;;;;;;;;;;5.88;100.00;96419.72;30001;983;1884;-54
2024/03/05 01:31:15;;;;;;;;;;;;;;;5.89;100.00;96421.34;30001;983;1880;-54
2024/03/05 01:31:46;;;;;;;;;;;;;;;5.89;100.00;96425.97;30001;983;1793;-55
2024/03/05 01:32:20;;;;;;;;;;;;;;;5.89;100.00;96417.88;30001;983;1880;-54
2024/03/05 01:32:52;;;;;;;;;;;;;;;5.88;100.00;96417.03;30001;983;1872;-54
2024/03/05 01:33:22;;;;;;;;;;;;;;;5.89;100.00;96424.03;30001;983;1872;-54
2024/03/05 01:33:53;;;;;;;;;;;;;;;5.89;100.00;96420.56;30001;983;1885;-54
2024/03/05 01:34:24;;;;;;;;;;;;;;;5.89;100.00;96424.03;30001;982;1881;-54
2024/03/05 01:34:56;;;;;;;;;;;;;;;5.89;100.00;96417.88;30001;982;1885;-54
2024/03/05 01:35:27;;;;;;;;;;;;;;;5.88;100.00;96417.03;30001;982;1881;-53
2024/03/05 01:35:58;;;;;;;;;;;;;;;5.88;100.00;96417.03;30001;982;1885;-54
2024/03/05 01:36:29;;;;;;;;;;;;;;;5.89;100.00;96415.97;30001;982;1881;-53
2024/03/05 01:37:01;;;;;;;;;;;;;;;5.88;100.00;96417.03;30001;982;1886;-54
2024/03/05 01:37:32;;;;;;;;;;;;;;;5.89;100.00;96417.88;30001;982;1881;-53
2024/03/05 01:38:03;;;;;;;;;;;;;;;5.88;100.00;96418.94;30001;983;1872;-54
2024/03/05 01:38:34;;;;;;;;;;;;;;;5.89;100.00;96413.28;30001;965;1890;-54
2024/03/05 01:39:05;;;;;;;;;;;;;;;5.88;100.00;96418.94;30001;983;1885;-54
2024/03/05 01:39:36;;;;;;;;;;;;;;;5.88;100.00;96417.03;30001;983;1880;-54
2024/03/05 01:40:10;;;;;;;;;;;;;;;5.87;100.00;96418.13;30001;983;1885;-54
2024/03/05 01:40:41;;;;;;;;;;;;;;;5.89;100.00;96420.56;30001;983;1881;-54
2024/03/05 01:41:13;;;;;;;;;;;;;;;5.89;100.00;96418.66;30001;983;1885;-53
2024/03/05 01:41:44;;;;;;;;;;;;;;;5.89;100.00;96412.50;30001;983;1880;-54
2024/03/05 01:42:15;;;;;;;;;;;;;;;5.89;100.00;96418.66;30001;982;1885;-54
2024/03/05 01:42:46;;;;;;;;;;;;;;;5.89;100.00;96415.97;30001;982;1881;-54
2024/03/05 01:43:19;;;;;;;;;;;;;;;5.89;100.00;96417.88;30001;982;1872;-54
2024/03/05 01:43:50;;;;;;;;;;;;;;;5.90;100.00;96417.56;30001;982;1872;-54
2024/03/05 01:44:22;;;;;;;;;;;;;;;5.89;100.00;96417.88;30001;982;1885;-54
2024/03/05 01:44:53;;;;;;;;;;;;;;;5.89;100.00;96418.66;30001;982;1881;-54
2024/03/05 01:45:23;;;;;;;;;;;;;;;5.89;100.00;96417.88;30001;983;1885;-54
2024/03/05 01:45:55;;;;;;;;;;;;;;;5.89;100.00;96418.66;30001;983;1880;-54
2024/03/05 01:46:28;;;;;;;;;;;;;;;5.90;100.00;96414.88;30001;983;1885;-69
2024/03/05 01:47:00;;;;;;;;;;;;;;;5.89;100.00;96421.34;30001;983;1880;-54
2024/03/05 01:47:32;;;;;;;;;;;;;;;5.89;100.00;96417.88;30001;983;1885;-54
2024/03/05 01:48:04;;;;;;;;;;;;;;;5.89;100.00;96415.97;30001;983;1881;-54
2024/03/05 01:48:35;;;;;;;;;;;;;;;5.88;100.00;96419.72;30001;983;1872;-53
2024/03/05 01:49:08;;;;;;;;;;;;;;;5.88;100.00;96422.44;30001;983;1872;-54
2024/03/05 01:49:39;;;;;;;;;;;;;;;5.87;100.00;96414.62;30001;982;1885;-54
2024/03/05 01:50:10;;;;;;;;;;;;;;;5.86;100.00;96413.81;30001;982;1881;-54
2024/03/05 01:50:42;;;;;;;;;;;;;;;5.85;100.00;96422.97;30001;982;1885;-54
2024/03/05 01:51:17;;;;;;;;;;;;;;;5.85;100.00;96419.47;30001;982;1881;-54
2024/03/05 01:51:48;;;;;;;;;;;;;;;5.85;100.00;96416.78;30001;982;1885;-54
2024/03/05 01:52:19;;;;;;;;;;;;;;;5.84;100.00;96415.97;30001;982;1881;-54
2024/03/05 01:52:50;;;;;;;;;;;;;;;5.84;100.00;96417.88;30001;986;1885;-54
2024/03/05 01:53:22;;;;;;;;;;;;;;;5.83;100.00;96419.75;30001;983;1880;-54
2024/03/05 01:53:53;;;;;;;;;;;;;;;5.83;100.00;96424.31;30001;983;1872;-54
2024/03/05 01:54:26;;;;;;;;;;;;;;;5.82;100.00;96420.81;30001;983;1872;-53
2024/03/05 01:55:01;;;;;;;;;;;;;;;5.81;100.00;96418.41;30001;983;1885;-54
2024/03/05 01:55:37;;;;;;;;;;;;;;;5.80;100.00;96420.28;30001;983;1881;-54
2024/03/05 01:56:08;;;;;;;;;;;;;;;5.79;100.00;96420.56;30001;983;1885;-54
2024/03/05 01:56:42;;;;;;;;;;;;;;;5.79;100.00;96424.06;30001;983;1881;-54
2024/03/05 01:57:13;;;;;;;;;;;;;;;5.78;100.00;96419.75;30001;982;1885;-53
2024/03/05 01:57:46;;;;;;;;;;;;;;;5.79;100.00;96418.69;30001;982;1881;-54
2024/03/05 01:58:19;;;;;;;;;;;;;;;5.79;100.00;96418.69;30001;982;1885;-54
2024/03/05 01:58:54;;;;;;;;;;;;;;;5.81;100.00;96421.91;30001;982;1881;-53
2024/03/05 01:59:25;;;;;;;;;;;;;;;5.81;100.00;96421.91;30001;982;1872;-53
2024/03/05 01:59:56;;;;;;;;;;;;;;;5.81;100.00;96423.78;30001;982;1872;-54
2024/03/05 02:00:27;;;;;;;;;;;;;;;5.80;100.00;96412.22;30001;983;1884;-53
2024/03/05 02:01:02;;;;;;;;;;;;;;;5.80;100.00;96414.91;30001;983;1880;-69
2024/03/05 02:01:36;;;;;;;;;;;;;;;5.79;100.00;96421.38;30001;983;1885;-54
2024/03/05 02:02:09;;;;;;;;;;;;;;;5.81;100.00;96421.91;30001;983;1880;-54
2024/03/05 02:02:42;;;;;;;;;;;;;;;5.80;100.00;96419.47;30001;983;1885;-54
2024/03/05 02:03:13;;;;;;;;;;;;;;;5.80;100.00;96414.91;30001;983;1881;-53
2024/03/05 02:03:45;;;;;;;;;;;;;;;5.79;100.00;96415.19;30001;983;1885;-53
2024/03/05 02:04:17;;;;;;;;;;;;;;;5.80;100.00;96425.69;30001;983;1881;-53
2024/03/05 02:04:48;;;;;;;;;;;;;;;5.80;100.00;96422.97;30001;982;1872;-53
2024/03/05 02:05:20;;;;;;;;;;;;;;;5.79;100.00;96413.28;30001;982;1872;-54
2024/03/05 02:05:53;;;;;;;;;;;;;;;5.77;100.00;96420.84;30001;982;1797;-53
2024/03/05 02:06:24;;;;;;;;;;;;;;;5.77;100.00;96415.44;30001;982;1881;-53
2024/03/05 02:06:56;;;;;;;;;;;;;;;5.77;100.00;96415.44;30001;982;1885;-53
2024/03/05 02:07:27;;;;;;;;;;;;;;;5.78;100.00;96411.69;30001;966;1897;-53
2024/03/05 02:07:58;;;;;;;;;;;;;;;5.79;100.00;96417.88;30001;983;1885;-53
2024/03/05 02:08:29;;;;;;;;;;;;;;;5.79;100.00;96420.56;30001;983;1880;-53
2024/03/05 02:09:01;;;;;;;;;;;;;;;5.78;100.00;96417.06;30001;983;1885;-53
2024/03/05 02:09:32;;;;;;;;;;;;;;;5.79;100.00;96420.56;30001;983;1880;-53
2024/03/05 02:10:07;;;;;;;;;;;;;;;5.79;100.00;96417.88;30001;983;1872;-54
2024/03/05 02:10:38;;;;;;;;;;;;;;;5.78;100.00;96417.06;30001;983;1872;-54
2024/03/05 02:11:11;;;;;;;;;;;;;;;5.78;100.00;96419.75;30001;983;1885;-53
2024/03/05 02:11:42;;;;;;;;;;;;;;;5.79;100.00;96424.06;30001;983;1881;-55
2024/03/05 02:12:13;;;;;;;;;;;;;;;5.78;100.00;96419.75;30001;982;1885;-54
2024/03/05 02:12:44;;;;;;;;;;;;;;;5.78;100.00;96417.06;30001;982;1881;-53
2024/03/05 02:13:15;;;;;;;;;;;;;;;5.78;100.00;96414.38;30001;982;1885;-53
2024/03/05 02:13:46;;;;;;;;;;;;;;;5.79;100.00;96417.88;30001;982;1881;-54
2024/03/05 02:14:17;;;;;;;;;;;;;;;5.79;100.00;96413.28;30001;982;1885;-53
2024/03/05 02:14:48;;;;;;;;;;;;;;;5.79;100.00;96420.56;30001;983;1880;-54
2024/03/05 02:15:19;;;;;;;;;;;;;;;5.79;100.00;96420.56;30001;983;1871;-54
2024/03/05 02:15:51;;;;;;;;;;;;;;;5.78;100.00;96419.75;30001;983;1871;-54
2024/03/05 02:16:22;;;;;;;;;;;;;;;5.77;100.00;96420.84;30001;983;1885;-54
2024/03/05 02:16:54;;;;;;;;;;;;;;;5.77;100.00;96418.16;30001;983;1880;-54
2024/03/05 02:17:26;;;;;;;;;;;;;;;5.77;100.00;96418.16;30001;983;1885;-54
2024/03/05 02:17:57;;;;;;;;;;;;;;;5.77;100.00;96420.03;30001;983;1881;-53
2024/03/05 02:18:28;;;;;;;;;;;;;;;5.76;100.00;96419.22;30001;983;1885;-54
2024/03/05 02:18:59;;;;;;;;;;;;;;;5.77;100.00;96414.66;30001;983;1880;-54
2024/03/05 02:19:30;;;;;;;;;;;;;;;5.76;100.00;96413.84;30001;983;1885;-54
2024/03/05 02:20:01;;;;;;;;;;;;;;;5.76;100.00;96421.91;30001;982;1881;-53
2024/03/05 02:20:33;;;;;;;;;;;;;;;5.77;100.00;96420.84;30001;982;1872;-53
2024/03/05 02:21:05;;;;;;;;;;;;;;;5.77;100.00;96420.84;30001;982;1872;-54
2024/03/05 02:21:37;;;;;;;;;;;;;;;5.76;100.00;96419.22;30001;982;1885;-54
2024/03/05 02:22:09;;;;;;;;;;;;;;;5.77;100.00;96417.34;30001;983;1880;-53
2024/03/05 02:22:41;;;;;;;;;;;;;;;5.75;100.00;96420.31;30001;983;1884;-54
2024/03/05 02:23:12;;;;;;;;;;;;;;;5.75;100.00;96420.31;30001;983;1880;-54
2024/03/05 02:23:43;;;;;;;;;;;;;;;5.75;100.00;96423.00;30001;983;1885;-54
2024/03/05 02:24:14;;;;;;;;;;;;;;;5.76;100.00;96427.31;30001;986;1880;-54
2024/03/05 02:24:45;;;;;;;;;;;;;;;5.76;100.00;96418.41;30001;983;1885;-54
2024/03/05 02:25:16;;;;;;;;;;;;;;;5.76;100.00;96415.72;30001;983;1880;-54
2024/03/05 02:25:49;;;;;;;;;;;;;;;5.76;100.00;96424.59;30001;983;1872;-53
2024/03/05 02:26:22;;;;;;;;;;;;;;;5.75;100.00;96423.00;30001;983;1872;-54
2024/03/05 02:26:52;;;;;;;;;;;;;;;5.75;100.00;96425.69;30001;983;1885;-70
2024/03/05 02:27:23;;;;;;;;;;;;;;;5.76;100.00;96421.09;30001;982;1881;-54
2024/03/05 02:27:54;;;;;;;;;;;;;;;5.75;100.00;96424.88;30001;982;1885;-69
2024/03/05 02:28:26;;;;;;;;;;;;;;;5.74;100.00;96421.38;30001;982;1881;-54
2024/03/05 02:28:57;;;;;;;;;;;;;;;5.74;100.00;96426.75;30001;982;1886;-54
2024/03/05 02:29:29;;;;;;;;;;;;;;;5.74;100.00;96424.06;30001;982;1881;-54
2024/03/05 02:30:00;;;;;;;;;;;;;;;5.75;100.00;96425.69;30001;983;1884;-54
2024/03/05 02:30:31;;;;;;;;;;;;;;;5.75;100.00;96428.38;30001;983;1880;-53
2024/03/05 02:31:03;;;;;;;;;;;;;;;5.73;100.00;96415.19;30001;983;1871;-54
2024/03/05 02:31:34;;;;;;;;;;;;;;;5.74;100.00;96418.69;30001;983;1871;-53
2024/03/05 02:32:06;;;;;;;;;;;;;;;5.74;100.00;96416.00;30001;983;1885;-54
2024/03/05 02:32:41;;;;;;;;;;;;;;;5.72;100.00;96421.66;30001;983;1880;-53
2024/03/05 02:33:13;;;;;;;;;;;;;;;5.74;100.00;96421.38;30001;983;1885;-54
2024/03/05 02:33:44;;;;;;;;;;;;;;;5.73;100.00;96420.56;30001;983;1881;-54
2024/03/05 02:34:16;;;;;;;;;;;;;;;5.72;100.00;96424.34;30001;983;1885;-54
2024/03/05 02:34:48;;;;;;;;;;;;;;;5.72;100.00;96418.16;30001;982;1881;-54
2024/03/05 02:35:20;;;;;;;;;;;;;;;5.70;100.00;96420.31;30001;982;1885;-54
2024/03/05 02:35:56;;;;;;;;;;;;;;;5.70;100.00;96420.31;30001;982;1881;-53
2024/03/05 02:36:27;;;;;;;;;;;;;;;5.69;100.00;96418.69;30001;983;1871;-54
2024/03/05 02:36:59;;;;;;;;;;;;;;;5.67;100.00;96415.47;30001;983;1871;-54
2024/03/05 02:37:30;;;;;;;;;;;;;;;5.67;100.00;96432.44;30001;983;1885;-54
2024/03/05 02:38:00;;;;;;;;;;;;;;;5.69;100.00;96416.81;30001;983;1880;-54
2024/03/05 02:38:31;;;;;;;;;;;;;;;5.68;100.00;96427.84;30001;983;1885;-54
2024/03/05 02:39:02;;;;;;;;;;;;;;;5.69;100.00;96424.06;30001;983;1880;-54
2024/03/05 02:39:33;;;;;;;;;;;;;;;5.68;100.00;96423.28;30001;983;1885;-53
2024/03/05 02:40:14;;;;;;;;;;;;;;;5.70;100.00;96425.69;30001;983;1881;-54
2024/03/05 02:40:44;;;;;;;;;;;;;;;5.68;100.00;96422.47;30001;983;1885;-53
2024/03/05 02:41:15;;;;;;;;;;;;;;;5.68;100.00;96423.28;30001;983;1881;-53
2024/03/05 02:41:46;;;;;;;;;;;;;;;5.69;100.00;96424.06;30001;982;1872;-53
2024/03/05 02:42:17;;;;;;;;;;;;;;;5.69;100.00;96426.78;30001;982;1872;-53
2024/03/05 02:42:48;;;;;;;;;;;;;;;5.69;100.00;96418.69;30001;982;1885;-54
2024/03/05 02:43:20;;;;;;;;;;;;;;;5.68;100.00;96423.28;30001;982;1881;-54
2024/03/05 02:43:51;;;;;;;;;;;;;;;5.68;100.00;96428.66;30001;982;1885;-54
2024/03/05 02:44:22;;;;;;;;;;;;;;;5.69;100.00;96424.06;30001;983;1880;-56
2024/03/05 02:44:53;;;;;;;;;;;;;;;5.68;100.00;96431.34;30001;983;1885;-53
2024/03/05 02:45:24;;;;;;;;;;;;;;;5.69;100.00;96424.06;30001;983;1880;-54
2024/03/05 02:45:55;;;;;;;;;;;;;;;5.68;100.00;96423.28;30001;983;1885;-54
2024/03/05 02:46:26;;;;;;;;;;;;;;;5.68;100.00;96423.28;30001;983;1881;-53
2024/03/05 02:46:59;;;;;;;;;;;;;;;5.67;100.00;96429.72;30001;983;1872;-54
2024/03/05 02:47:31;;;;;;;;;;;;;;;5.69;100.00;96429.47;30001;983;1872;-53
2024/03/05 02:48:03;;;;;;;;;;;;;;;5.68;100.00;96433.22;30001;983;1885;-53
2024/03/05 02:48:34;;;;;;;;;;;;;;;5.68;100.00;96427.84;30001;983;1881;-54
2024/03/05 02:49:04;;;;;;;;;;;;;;;5.67;100.00;96424.34;30001;982;1885;-54